sensor_id;sensor_type;location;lat;lon;timestamp;P1;durP1;ratioP1;P2;durP2;ratioP2
44981;SDS011;30716;41.740;-70.400;2023-04-24T00:00:16;3.92;;;0.90;;
44981;SDS011;30716;41.740;-70.400;2023-04-24T00:02:43;1.73;;;0.75;;
44981;SDS011;30716;41.740;-70.400;2023-04-24T00:05:12;1.23;;;0.55;;
44981;SDS011;30716;41.740;-70.400;2023-04-24T00:07:43;1.10;;;0.68;;
44981;SDS011;30716;41.740;-70.400;2023-04-24T00:10:10;2.05;;;0.75;;
44981;SDS011;30716;41.740;-70.400;2023-04-24T00:12:37;1.90;;;0.82;;
44981;SDS011;30716;41.740;-70.400;2023-04-24T00:15:04;2.38;;;0.98;;
44981;SDS011;30716;41.740;-70.400;2023-04-24T00:17:30;2.53;;;0.70;;
44981;SDS011;30716;41.740;-70.400;2023-04-24T00:19:56;1.83;;;0.55;;
44981;SDS011;30716;41.740;-70.400;2023-04-24T00:22:27;1.85;;;0.75;;
44981;SDS011;30716;41.740;-70.400;2023-04-24T00:24:54;2.88;;;1.10;;
44981;SDS011;30716;41.740;-70.400;2023-04-24T00:27:20;2.28;;;0.85;;
44981;SDS011;30716;41.740;-70.400;2023-04-24T00:29:46;1.08;;;0.50;;
44981;SDS011;30716;41.740;-70.400;2023-04-24T00:32:12;1.67;;;0.65;;
44981;SDS011;30716;41.740;-70.400;2023-04-24T00:34:39;1.58;;;0.90;;
44981;SDS011;30716;41.740;-70.400;2023-04-24T00:37:05;2.80;;;0.88;;
44981;SDS011;30716;41.740;-70.400;2023-04-24T00:39:32;2.88;;;0.70;;
44981;SDS011;30716;41.740;-70.400;2023-04-24T00:41:58;1.80;;;0.65;;
44981;SDS011;30716;41.740;-70.400;2023-04-24T00:44:24;2.63;;;0.90;;
44981;SDS011;30716;41.740;-70.400;2023-04-24T00:46:51;1.75;;;0.65;;
44981;SDS011;30716;41.740;-70.400;2023-04-24T00:49:22;2.47;;;0.60;;
44981;SDS011;30716;41.740;-70.400;2023-04-24T00:51:49;1.65;;;0.65;;
44981;SDS011;30716;41.740;-70.400;2023-04-24T00:54:16;1.70;;;0.50;;
44981;SDS011;30716;41.740;-70.400;2023-04-24T00:56:43;1.38;;;0.68;;
44981;SDS011;30716;41.740;-70.400;2023-04-24T00:59:13;1.33;;;0.70;;
44981;SDS011;30716;41.740;-70.400;2023-04-24T01:01:43;1.48;;;0.60;;
44981;SDS011;30716;41.740;-70.400;2023-04-24T01:04:11;1.60;;;0.68;;
44981;SDS011;30716;41.740;-70.400;2023-04-24T01:06:38;1.52;;;0.60;;
44981;SDS011;30716;41.740;-70.400;2023-04-24T01:09:05;1.70;;;0.60;;
44981;SDS011;30716;41.740;-70.400;2023-04-24T01:11:36;3.10;;;1.15;;
44981;SDS011;30716;41.740;-70.400;2023-04-24T01:14:03;2.47;;;0.65;;
44981;SDS011;30716;41.740;-70.400;2023-04-24T01:16:29;1.05;;;0.70;;
44981;SDS011;30716;41.740;-70.400;2023-04-24T01:18:55;1.23;;;0.40;;
44981;SDS011;30716;41.740;-70.400;2023-04-24T01:21:21;1.27;;;0.57;;
44981;SDS011;30716;41.740;-70.400;2023-04-24T01:23:52;1.45;;;0.80;;
44981;SDS011;30716;41.740;-70.400;2023-04-24T01:26:19;1.05;;;0.55;;
44981;SDS011;30716;41.740;-70.400;2023-04-24T01:28:46;2.50;;;1.05;;
44981;SDS011;30716;41.740;-70.400;2023-04-24T01:31:13;2.17;;;0.82;;
44981;SDS011;30716;41.740;-70.400;2023-04-24T01:33:40;1.75;;;0.60;;
44981;SDS011;30716;41.740;-70.400;2023-04-24T01:36:08;1.65;;;0.65;;
44981;SDS011;30716;41.740;-70.400;2023-04-24T01:38:35;1.77;;;0.57;;
44981;SDS011;30716;41.740;-70.400;2023-04-24T01:41:02;1.42;;;0.70;;
44981;SDS011;30716;41.740;-70.400;2023-04-24T01:43:28;2.58;;;0.75;;
44981;SDS011;30716;41.740;-70.400;2023-04-24T01:45:55;1.30;;;0.57;;
44981;SDS011;30716;41.740;-70.400;2023-04-24T01:48:21;1.90;;;0.63;;
44981;SDS011;30716;41.740;-70.400;2023-04-24T01:50:48;1.48;;;0.70;;
44981;SDS011;30716;41.740;-70.400;2023-04-24T01:53:14;1.17;;;0.55;;
44981;SDS011;30716;41.740;-70.400;2023-04-24T01:55:40;1.55;;;0.70;;
44981;SDS011;30716;41.740;-70.400;2023-04-24T01:58:07;1.38;;;0.50;;
44981;SDS011;30716;41.740;-70.400;2023-04-24T02:00:33;2.28;;;0.70;;
44981;SDS011;30716;41.740;-70.400;2023-04-24T02:02:59;1.33;;;0.70;;
44981;SDS011;30716;41.740;-70.400;2023-04-24T02:05:27;1.98;;;0.60;;
44981;SDS011;30716;41.740;-70.400;2023-04-24T02:07:53;1.25;;;0.45;;
44981;SDS011;30716;41.740;-70.400;2023-04-24T02:10:19;1.90;;;0.68;;
44981;SDS011;30716;41.740;-70.400;2023-04-24T02:12:46;1.48;;;0.70;;
44981;SDS011;30716;41.740;-70.400;2023-04-24T02:15:12;1.20;;;0.63;;
44981;SDS011;30716;41.740;-70.400;2023-04-24T02:17:38;1.55;;;0.70;;
44981;SDS011;30716;41.740;-70.400;2023-04-24T02:20:06;1.92;;;0.70;;
44981;SDS011;30716;41.740;-70.400;2023-04-24T02:22:32;1.55;;;0.60;;
44981;SDS011;30716;41.740;-70.400;2023-04-24T02:24:59;1.75;;;0.82;;
44981;SDS011;30716;41.740;-70.400;2023-04-24T02:27:25;2.38;;;0.93;;
44981;SDS011;30716;41.740;-70.400;2023-04-24T02:29:51;1.08;;;0.40;;
44981;SDS011;30716;41.740;-70.400;2023-04-24T02:32:17;1.50;;;0.65;;
44981;SDS011;30716;41.740;-70.400;2023-04-24T02:34:43;1.33;;;0.45;;
44981;SDS011;30716;41.740;-70.400;2023-04-24T02:37:12;1.67;;;0.70;;
44981;SDS011;30716;41.740;-70.400;2023-04-24T02:39:38;1.05;;;0.60;;
44981;SDS011;30716;41.740;-70.400;2023-04-24T02:42:04;1.25;;;0.50;;
44981;SDS011;30716;41.740;-70.400;2023-04-24T02:44:35;1.35;;;0.50;;
44981;SDS011;30716;41.740;-70.400;2023-04-24T02:47:01;1.92;;;0.73;;
44981;SDS011;30716;41.740;-70.400;2023-04-24T02:49:31;2.55;;;0.75;;
44981;SDS011;30716;41.740;-70.400;2023-04-24T02:51:58;1.60;;;0.60;;
44981;SDS011;30716;41.740;-70.400;2023-04-24T02:54:24;1.20;;;0.55;;
44981;SDS011;30716;41.740;-70.400;2023-04-24T02:56:50;1.17;;;0.50;;
44981;SDS011;30716;41.740;-70.400;2023-04-24T02:59:16;1.38;;;0.65;;
44981;SDS011;30716;41.740;-70.400;2023-04-24T03:01:42;2.17;;;0.88;;
44981;SDS011;30716;41.740;-70.400;2023-04-24T03:04:08;2.15;;;0.63;;
44981;SDS011;30716;41.740;-70.400;2023-04-24T03:06:35;1.27;;;0.60;;
44981;SDS011;30716;41.740;-70.400;2023-04-24T03:09:01;0.77;;;0.50;;
44981;SDS011;30716;41.740;-70.400;2023-04-24T03:11:28;1.17;;;0.55;;
44981;SDS011;30716;41.740;-70.400;2023-04-24T03:13:54;2.25;;;1.55;;
44981;SDS011;30716;41.740;-70.400;2023-04-24T03:16:21;1.23;;;0.40;;
44981;SDS011;30716;41.740;-70.400;2023-04-24T03:18:47;2.45;;;0.68;;
44981;SDS011;30716;41.740;-70.400;2023-04-24T03:21:13;1.15;;;0.35;;
44981;SDS011;30716;41.740;-70.400;2023-04-24T03:23:39;0.70;;;0.40;;
44981;SDS011;30716;41.740;-70.400;2023-04-24T03:26:05;2.55;;;0.88;;
44981;SDS011;30716;41.740;-70.400;2023-04-24T03:28:31;1.77;;;0.60;;
44981;SDS011;30716;41.740;-70.400;2023-04-24T03:30:57;1.02;;;0.40;;
44981;SDS011;30716;41.740;-70.400;2023-04-24T03:33:23;1.80;;;0.65;;
44981;SDS011;30716;41.740;-70.400;2023-04-24T03:35:50;1.70;;;0.60;;
44981;SDS011;30716;41.740;-70.400;2023-04-24T03:38:16;1.25;;;0.50;;
44981;SDS011;30716;41.740;-70.400;2023-04-24T03:40:42;1.85;;;0.80;;
44981;SDS011;30716;41.740;-70.400;2023-04-24T03:43:08;1.30;;;0.50;;
44981;SDS011;30716;41.740;-70.400;2023-04-24T03:45:34;1.25;;;0.75;;
44981;SDS011;30716;41.740;-70.400;2023-04-24T03:48:00;3.22;;;1.27;;
44981;SDS011;30716;41.740;-70.400;2023-04-24T03:50:26;1.75;;;0.60;;
44981;SDS011;30716;41.740;-70.400;2023-04-24T03:52:54;2.17;;;0.70;;
44981;SDS011;30716;41.740;-70.400;2023-04-24T03:55:20;2.20;;;0.70;;
44981;SDS011;30716;41.740;-70.400;2023-04-24T03:57:46;1.65;;;0.75;;
44981;SDS011;30716;41.740;-70.400;2023-04-24T04:00:12;1.42;;;0.75;;
44981;SDS011;30716;41.740;-70.400;2023-04-24T04:02:39;1.15;;;0.60;;
44981;SDS011;30716;41.740;-70.400;2023-04-24T04:05:05;3.10;;;0.80;;
44981;SDS011;30716;41.740;-70.400;2023-04-24T04:07:33;2.28;;;0.80;;
44981;SDS011;30716;41.740;-70.400;2023-04-24T04:09:59;1.38;;;0.47;;
44981;SDS011;30716;41.740;-70.400;2023-04-24T04:12:25;2.78;;;0.70;;
44981;SDS011;30716;41.740;-70.400;2023-04-24T04:14:51;1.27;;;0.68;;
44981;SDS011;30716;41.740;-70.400;2023-04-24T04:17:18;1.75;;;0.52;;
44981;SDS011;30716;41.740;-70.400;2023-04-24T04:19:44;1.58;;;0.73;;
44981;SDS011;30716;41.740;-70.400;2023-04-24T04:22:10;1.73;;;0.70;;
44981;SDS011;30716;41.740;-70.400;2023-04-24T04:24:36;1.35;;;0.80;;
44981;SDS011;30716;41.740;-70.400;2023-04-24T04:27:03;1.88;;;0.68;;
44981;SDS011;30716;41.740;-70.400;2023-04-24T04:29:30;1.95;;;0.68;;
44981;SDS011;30716;41.740;-70.400;2023-04-24T04:31:57;1.10;;;0.57;;
44981;SDS011;30716;41.740;-70.400;2023-04-24T04:34:23;1.52;;;0.47;;
44981;SDS011;30716;41.740;-70.400;2023-04-24T04:36:50;1.48;;;1.38;;
44981;SDS011;30716;41.740;-70.400;2023-04-24T04:39:16;1.45;;;0.75;;
44981;SDS011;30716;41.740;-70.400;2023-04-24T04:41:43;2.78;;;1.25;;
44981;SDS011;30716;41.740;-70.400;2023-04-24T04:44:11;1.02;;;0.52;;
44981;SDS011;30716;41.740;-70.400;2023-04-24T04:46:39;1.67;;;0.55;;
44981;SDS011;30716;41.740;-70.400;2023-04-24T04:49:06;1.48;;;0.50;;
44981;SDS011;30716;41.740;-70.400;2023-04-24T04:51:34;0.52;;;0.30;;
44981;SDS011;30716;41.740;-70.400;2023-04-24T04:54:00;1.60;;;0.52;;
44981;SDS011;30716;41.740;-70.400;2023-04-24T04:56:26;2.38;;;0.52;;
44981;SDS011;30716;41.740;-70.400;2023-04-24T04:58:52;1.20;;;0.50;;
44981;SDS011;30716;41.740;-70.400;2023-04-24T05:01:19;2.65;;;0.80;;
44981;SDS011;30716;41.740;-70.400;2023-04-24T05:03:45;1.25;;;0.70;;
44981;SDS011;30716;41.740;-70.400;2023-04-24T05:06:11;2.28;;;0.60;;
44981;SDS011;30716;41.740;-70.400;2023-04-24T05:08:39;1.13;;;0.55;;
44981;SDS011;30716;41.740;-70.400;2023-04-24T05:11:05;2.78;;;0.80;;
44981;SDS011;30716;41.740;-70.400;2023-04-24T05:13:31;0.82;;;0.45;;
44981;SDS011;30716;41.740;-70.400;2023-04-24T05:15:57;1.70;;;0.68;;
44981;SDS011;30716;41.740;-70.400;2023-04-24T05:18:24;1.00;;;0.47;;
44981;SDS011;30716;41.740;-70.400;2023-04-24T05:20:50;1.70;;;0.55;;
44981;SDS011;30716;41.740;-70.400;2023-04-24T05:23:16;1.55;;;0.60;;
44981;SDS011;30716;41.740;-70.400;2023-04-24T05:25:42;1.58;;;0.40;;
44981;SDS011;30716;41.740;-70.400;2023-04-24T05:28:08;2.05;;;0.55;;
44981;SDS011;30716;41.740;-70.400;2023-04-24T05:30:35;1.40;;;0.20;;
44981;SDS011;30716;41.740;-70.400;2023-04-24T05:33:01;0.65;;;0.40;;
44981;SDS011;30716;41.740;-70.400;2023-04-24T05:35:27;1.17;;;0.63;;
44981;SDS011;30716;41.740;-70.400;2023-04-24T05:37:54;1.20;;;0.45;;
44981;SDS011;30716;41.740;-70.400;2023-04-24T05:40:20;1.05;;;0.40;;
44981;SDS011;30716;41.740;-70.400;2023-04-24T05:42:46;0.95;;;0.40;;
44981;SDS011;30716;41.740;-70.400;2023-04-24T05:45:12;1.08;;;0.40;;
44981;SDS011;30716;41.740;-70.400;2023-04-24T05:47:42;1.45;;;0.40;;
44981;SDS011;30716;41.740;-70.400;2023-04-24T05:50:09;2.08;;;0.40;;
44981;SDS011;30716;41.740;-70.400;2023-04-24T05:52:36;1.58;;;0.82;;
44981;SDS011;30716;41.740;-70.400;2023-04-24T05:55:02;1.23;;;0.50;;
44981;SDS011;30716;41.740;-70.400;2023-04-24T05:57:29;2.08;;;0.50;;
44981;SDS011;30716;41.740;-70.400;2023-04-24T05:59:55;1.58;;;0.65;;
44981;SDS011;30716;41.740;-70.400;2023-04-24T06:02:21;1.02;;;0.45;;
44981;SDS011;30716;41.740;-70.400;2023-04-24T06:04:48;0.93;;;0.70;;
44981;SDS011;30716;41.740;-70.400;2023-04-24T06:07:14;1.23;;;0.50;;
44981;SDS011;30716;41.740;-70.400;2023-04-24T06:09:40;0.98;;;0.55;;
44981;SDS011;30716;41.740;-70.400;2023-04-24T06:12:06;1.52;;;0.52;;
44981;SDS011;30716;41.740;-70.400;2023-04-24T06:14:34;1.02;;;0.30;;
44981;SDS011;30716;41.740;-70.400;2023-04-24T06:17:00;1.30;;;0.65;;
44981;SDS011;30716;41.740;-70.400;2023-04-24T06:19:26;0.90;;;0.45;;
44981;SDS011;30716;41.740;-70.400;2023-04-24T06:21:52;0.68;;;0.32;;
44981;SDS011;30716;41.740;-70.400;2023-04-24T06:24:18;1.40;;;0.60;;
44981;SDS011;30716;41.740;-70.400;2023-04-24T06:26:44;1.10;;;0.43;;
44981;SDS011;30716;41.740;-70.400;2023-04-24T06:29:10;0.80;;;0.40;;
44981;SDS011;30716;41.740;-70.400;2023-04-24T06:31:37;1.90;;;0.60;;
44981;SDS011;30716;41.740;-70.400;2023-04-24T06:34:03;0.70;;;0.30;;
44981;SDS011;30716;41.740;-70.400;2023-04-24T06:36:29;1.02;;;0.50;;
44981;SDS011;30716;41.740;-70.400;2023-04-24T06:38:56;1.67;;;0.82;;
44981;SDS011;30716;41.740;-70.400;2023-04-24T06:41:22;1.67;;;0.60;;
44981;SDS011;30716;41.740;-70.400;2023-04-24T06:43:48;1.10;;;0.30;;
44981;SDS011;30716;41.740;-70.400;2023-04-24T06:46:14;0.88;;;0.30;;
44981;SDS011;30716;41.740;-70.400;2023-04-24T06:48:41;1.55;;;0.57;;
44981;SDS011;30716;41.740;-70.400;2023-04-24T06:57:41;1.02;;;0.40;;
44981;SDS011;30716;41.740;-70.400;2023-04-24T07:00:09;0.98;;;0.30;;
44981;SDS011;30716;41.740;-70.400;2023-04-24T07:02:36;0.88;;;0.40;;
44981;SDS011;30716;41.740;-70.400;2023-04-24T07:05:03;1.10;;;0.43;;
44981;SDS011;30716;41.740;-70.400;2023-04-24T07:07:30;0.98;;;0.32;;
44981;SDS011;30716;41.740;-70.400;2023-04-24T07:09:56;0.90;;;0.35;;
44981;SDS011;30716;41.740;-70.400;2023-04-24T07:12:22;0.43;;;0.30;;
44981;SDS011;30716;41.740;-70.400;2023-04-24T07:14:50;1.90;;;0.45;;
44981;SDS011;30716;41.740;-70.400;2023-04-24T07:17:16;0.60;;;0.30;;
44981;SDS011;30716;41.740;-70.400;2023-04-24T07:19:42;0.95;;;0.50;;
44981;SDS011;30716;41.740;-70.400;2023-04-24T07:22:08;1.08;;;0.82;;
44981;SDS011;30716;41.740;-70.400;2023-04-24T07:24:36;0.57;;;0.30;;
44981;SDS011;30716;41.740;-70.400;2023-04-24T07:27:02;1.75;;;0.40;;
44981;SDS011;30716;41.740;-70.400;2023-04-24T07:29:29;0.85;;;0.30;;
44981;SDS011;30716;41.740;-70.400;2023-04-24T07:31:55;0.75;;;0.30;;
44981;SDS011;30716;41.740;-70.400;2023-04-24T07:34:21;1.50;;;0.50;;
44981;SDS011;30716;41.740;-70.400;2023-04-24T07:36:48;0.90;;;0.40;;
44981;SDS011;30716;41.740;-70.400;2023-04-24T07:39:14;1.15;;;0.32;;
44981;SDS011;30716;41.740;-70.400;2023-04-24T07:41:40;1.13;;;0.40;;
44981;SDS011;30716;41.740;-70.400;2023-04-24T07:44:06;1.20;;;0.40;;
44981;SDS011;30716;41.740;-70.400;2023-04-24T07:46:32;0.70;;;0.52;;
44981;SDS011;30716;41.740;-70.400;2023-04-24T07:48:58;1.27;;;0.60;;
44981;SDS011;30716;41.740;-70.400;2023-04-24T07:51:26;1.05;;;0.35;;
44981;SDS011;30716;41.740;-70.400;2023-04-24T07:53:56;0.77;;;0.40;;
44981;SDS011;30716;41.740;-70.400;2023-04-24T07:56:22;1.23;;;0.50;;
44981;SDS011;30716;41.740;-70.400;2023-04-24T07:58:48;0.93;;;0.63;;
44981;SDS011;30716;41.740;-70.400;2023-04-24T08:01:14;0.68;;;0.20;;
44981;SDS011;30716;41.740;-70.400;2023-04-24T08:03:41;1.00;;;0.40;;
44981;SDS011;30716;41.740;-70.400;2023-04-24T08:06:07;0.85;;;0.40;;
44981;SDS011;30716;41.740;-70.400;2023-04-24T08:08:33;0.85;;;0.30;;
44981;SDS011;30716;41.740;-70.400;2023-04-24T08:11:00;0.35;;;0.20;;
44981;SDS011;30716;41.740;-70.400;2023-04-24T08:13:26;0.88;;;0.30;;
44981;SDS011;30716;41.740;-70.400;2023-04-24T08:15:52;0.55;;;0.30;;
44981;SDS011;30716;41.740;-70.400;2023-04-24T08:18:18;0.95;;;0.32;;
44981;SDS011;30716;41.740;-70.400;2023-04-24T08:20:45;0.47;;;0.20;;
44981;SDS011;30716;41.740;-70.400;2023-04-24T08:23:11;0.75;;;0.28;;
44981;SDS011;30716;41.740;-70.400;2023-04-24T08:25:37;0.57;;;0.35;;
44981;SDS011;30716;41.740;-70.400;2023-04-24T08:28:05;0.93;;;0.40;;
44981;SDS011;30716;41.740;-70.400;2023-04-24T08:30:32;0.82;;;0.30;;
44981;SDS011;30716;41.740;-70.400;2023-04-24T08:32:58;0.55;;;0.30;;
44981;SDS011;30716;41.740;-70.400;2023-04-24T08:35:24;0.47;;;0.28;;
44981;SDS011;30716;41.740;-70.400;2023-04-24T08:37:52;0.90;;;0.30;;
44981;SDS011;30716;41.740;-70.400;2023-04-24T08:40:18;0.35;;;0.30;;
44981;SDS011;30716;41.740;-70.400;2023-04-24T08:42:56;0.88;;;0.40;;
44981;SDS011;30716;41.740;-70.400;2023-04-24T08:45:22;1.00;;;0.70;;
44981;SDS011;30716;41.740;-70.400;2023-04-24T08:47:49;1.00;;;0.20;;
44981;SDS011;30716;41.740;-70.400;2023-04-24T08:50:18;0.65;;;0.30;;
44981;SDS011;30716;41.740;-70.400;2023-04-24T08:52:45;1.08;;;0.30;;
44981;SDS011;30716;41.740;-70.400;2023-04-24T08:55:12;0.82;;;0.20;;
44981;SDS011;30716;41.740;-70.400;2023-04-24T08:57:40;1.02;;;0.30;;
44981;SDS011;30716;41.740;-70.400;2023-04-24T09:00:06;1.02;;;0.65;;
44981;SDS011;30716;41.740;-70.400;2023-04-24T09:02:33;0.60;;;0.30;;
44981;SDS011;30716;41.740;-70.400;2023-04-24T09:05:00;0.40;;;0.20;;
44981;SDS011;30716;41.740;-70.400;2023-04-24T09:07:27;0.55;;;0.20;;
44981;SDS011;30716;41.740;-70.400;2023-04-24T09:09:57;0.40;;;0.20;;
44981;SDS011;30716;41.740;-70.400;2023-04-24T09:12:24;1.10;;;0.30;;
44981;SDS011;30716;41.740;-70.400;2023-04-24T09:14:50;0.77;;;0.28;;
44981;SDS011;30716;41.740;-70.400;2023-04-24T09:17:17;0.32;;;0.10;;
44981;SDS011;30716;41.740;-70.400;2023-04-24T09:19:43;1.23;;;0.20;;
44981;SDS011;30716;41.740;-70.400;2023-04-24T09:22:10;0.40;;;0.20;;
44981;SDS011;30716;41.740;-70.400;2023-04-24T09:24:37;0.55;;;0.20;;
44981;SDS011;30716;41.740;-70.400;2023-04-24T09:27:04;0.68;;;0.30;;
44981;SDS011;30716;41.740;-70.400;2023-04-24T09:29:30;0.90;;;0.20;;
44981;SDS011;30716;41.740;-70.400;2023-04-24T09:31:58;0.68;;;0.38;;
44981;SDS011;30716;41.740;-70.400;2023-04-24T09:34:25;0.43;;;0.10;;
44981;SDS011;30716;41.740;-70.400;2023-04-24T09:36:52;1.52;;;0.65;;
44981;SDS011;30716;41.740;-70.400;2023-04-24T09:39:19;0.50;;;0.20;;
44981;SDS011;30716;41.740;-70.400;2023-04-24T09:44:26;1.10;;;0.40;;
44981;SDS011;30716;41.740;-70.400;2023-04-24T09:46:54;2.80;;;0.52;;
44981;SDS011;30716;41.740;-70.400;2023-04-24T09:49:25;0.68;;;0.20;;
44981;SDS011;30716;41.740;-70.400;2023-04-24T09:52:02;0.55;;;0.25;;
44981;SDS011;30716;41.740;-70.400;2023-04-24T09:54:29;0.32;;;0.20;;
44981;SDS011;30716;41.740;-70.400;2023-04-24T09:56:55;1.25;;;0.47;;
44981;SDS011;30716;41.740;-70.400;2023-04-24T09:59:22;0.40;;;0.20;;
44981;SDS011;30716;41.740;-70.400;2023-04-24T10:01:48;0.35;;;0.17;;
44981;SDS011;30716;41.740;-70.400;2023-04-24T10:04:19;0.15;;;0.10;;
44981;SDS011;30716;41.740;-70.400;2023-04-24T10:06:46;0.50;;;0.20;;
44981;SDS011;30716;41.740;-70.400;2023-04-24T10:09:14;0.95;;;0.17;;
44981;SDS011;30716;41.740;-70.400;2023-04-24T10:11:42;0.68;;;0.20;;
44981;SDS011;30716;41.740;-70.400;2023-04-24T10:14:14;0.10;;;0.10;;
44981;SDS011;30716;41.740;-70.400;2023-04-24T10:16:46;0.20;;;0.08;;
44981;SDS011;30716;41.740;-70.400;2023-04-24T10:19:13;0.30;;;0.20;;
44981;SDS011;30716;41.740;-70.400;2023-04-24T10:21:40;0.10;;;0.10;;
44981;SDS011;30716;41.740;-70.400;2023-04-24T10:24:12;0.15;;;0.15;;
44981;SDS011;30716;41.740;-70.400;2023-04-24T10:26:40;0.28;;;0.10;;
44981;SDS011;30716;41.740;-70.400;2023-04-24T10:29:07;0.10;;;0.10;;
44981;SDS011;30716;41.740;-70.400;2023-04-24T10:31:37;0.85;;;0.22;;
44981;SDS011;30716;41.740;-70.400;2023-04-24T10:34:04;0.60;;;0.10;;
44981;SDS011;30716;41.740;-70.400;2023-04-24T10:36:34;0.68;;;0.20;;
44981;SDS011;30716;41.740;-70.400;2023-04-24T10:39:06;0.82;;;0.20;;
44981;SDS011;30716;41.740;-70.400;2023-04-24T10:41:37;0.30;;;0.10;;
44981;SDS011;30716;41.740;-70.400;2023-04-24T10:44:16;0.57;;;0.20;;
44981;SDS011;30716;41.740;-70.400;2023-04-24T10:46:43;0.13;;;0.10;;
44981;SDS011;30716;41.740;-70.400;2023-04-24T10:49:10;0.32;;;0.20;;
44981;SDS011;30716;41.740;-70.400;2023-04-24T10:51:49;0.35;;;0.10;;
44981;SDS011;30716;41.740;-70.400;2023-04-24T10:54:41;0.70;;;0.40;;
44981;SDS011;30716;41.740;-70.400;2023-04-24T11:00:09;0.80;;;0.10;;
44981;SDS011;30716;41.740;-70.400;2023-04-24T11:02:37;2.28;;;0.40;;
44981;SDS011;30716;41.740;-70.400;2023-04-24T11:05:05;0.20;;;0.10;;
44981;SDS011;30716;41.740;-70.400;2023-04-24T11:10:38;0.20;;;0.10;;
44981;SDS011;30716;41.740;-70.400;2023-04-24T11:13:06;0.40;;;0.28;;
44981;SDS011;30716;41.740;-70.400;2023-04-24T11:15:32;0.30;;;0.03;;
44981;SDS011;30716;41.740;-70.400;2023-04-24T11:17:58;0.20;;;0.10;;
44981;SDS011;30716;41.740;-70.400;2023-04-24T11:20:24;0.85;;;0.20;;
44981;SDS011;30716;41.740;-70.400;2023-04-24T11:22:53;0.30;;;0.20;;
44981;SDS011;30716;41.740;-70.400;2023-04-24T11:25:20;0.10;;;0.10;;
44981;SDS011;30716;41.740;-70.400;2023-04-24T11:27:47;0.50;;;0.20;;
44981;SDS011;30716;41.740;-70.400;2023-04-24T11:30:19;0.55;;;0.20;;
44981;SDS011;30716;41.740;-70.400;2023-04-24T11:32:50;0.10;;;0.10;;
44981;SDS011;30716;41.740;-70.400;2023-04-24T11:35:17;0.28;;;0.13;;
44981;SDS011;30716;41.740;-70.400;2023-04-24T11:37:47;0.30;;;0.13;;
44981;SDS011;30716;41.740;-70.400;2023-04-24T11:40:15;0.15;;;0.10;;
44981;SDS011;30716;41.740;-70.400;2023-04-24T11:42:45;0.17;;;0.00;;
44981;SDS011;30716;41.740;-70.400;2023-04-24T11:47:42;0.00;;;0.00;;
44981;SDS011;30716;41.740;-70.400;2023-04-24T11:50:13;0.28;;;0.13;;
44981;SDS011;30716;41.740;-70.400;2023-04-24T11:52:42;0.20;;;0.10;;
44981;SDS011;30716;41.740;-70.400;2023-04-24T11:55:30;0.40;;;0.10;;
44981;SDS011;30716;41.740;-70.400;2023-04-24T11:57:56;0.30;;;0.10;;
44981;SDS011;30716;41.740;-70.400;2023-04-24T12:00:28;0.38;;;0.22;;
44981;SDS011;30716;41.740;-70.400;2023-04-24T12:03:08;0.30;;;0.10;;
44981;SDS011;30716;41.740;-70.400;2023-04-24T12:05:36;0.35;;;0.10;;
44981;SDS011;30716;41.740;-70.400;2023-04-24T12:08:02;0.00;;;0.00;;
44981;SDS011;30716;41.740;-70.400;2023-04-24T12:10:30;0.22;;;0.10;;
44981;SDS011;30716;41.740;-70.400;2023-04-24T12:12:58;0.20;;;0.03;;
44981;SDS011;30716;41.740;-70.400;2023-04-24T12:15:25;0.08;;;0.03;;
44981;SDS011;30716;41.740;-70.400;2023-04-24T12:17:53;0.15;;;0.08;;
44981;SDS011;30716;41.740;-70.400;2023-04-24T12:20:29;0.05;;;0.05;;
44981;SDS011;30716;41.740;-70.400;2023-04-24T12:22:58;0.35;;;0.10;;
44981;SDS011;30716;41.740;-70.400;2023-04-24T12:25:26;0.25;;;0.10;;
44981;SDS011;30716;41.740;-70.400;2023-04-24T12:27:54;1.35;;;0.90;;
44981;SDS011;30716;41.740;-70.400;2023-04-24T12:30:42;0.15;;;0.08;;
44981;SDS011;30716;41.740;-70.400;2023-04-24T12:33:17;0.20;;;0.10;;
44981;SDS011;30716;41.740;-70.400;2023-04-24T12:35:45;0.20;;;0.13;;
44981;SDS011;30716;41.740;-70.400;2023-04-24T12:38:12;0.60;;;0.10;;
44981;SDS011;30716;41.740;-70.400;2023-04-24T12:40:39;0.20;;;0.10;;
44981;SDS011;30716;41.740;-70.400;2023-04-24T12:43:27;0.25;;;0.20;;
44981;SDS011;30716;41.740;-70.400;2023-04-24T12:45:53;0.40;;;0.10;;
44981;SDS011;30716;41.740;-70.400;2023-04-24T12:48:19;0.28;;;0.10;;
44981;SDS011;30716;41.740;-70.400;2023-04-24T12:50:46;0.38;;;0.13;;
44981;SDS011;30716;41.740;-70.400;2023-04-24T12:53:12;0.28;;;0.10;;
44981;SDS011;30716;41.740;-70.400;2023-04-24T12:55:43;0.20;;;0.00;;
44981;SDS011;30716;41.740;-70.400;2023-04-24T12:58:10;0.38;;;0.10;;
44981;SDS011;30716;41.740;-70.400;2023-04-24T13:00:36;0.98;;;0.15;;
44981;SDS011;30716;41.740;-70.400;2023-04-24T13:03:04;0.30;;;0.10;;
44981;SDS011;30716;41.740;-70.400;2023-04-24T13:05:30;0.68;;;0.20;;
44981;SDS011;30716;41.740;-70.400;2023-04-24T13:07:57;0.20;;;0.10;;
44981;SDS011;30716;41.740;-70.400;2023-04-24T13:10:23;0.50;;;0.10;;
44981;SDS011;30716;41.740;-70.400;2023-04-24T13:12:49;0.22;;;0.20;;
44981;SDS011;30716;41.740;-70.400;2023-04-24T13:15:15;0.25;;;0.25;;
44981;SDS011;30716;41.740;-70.400;2023-04-24T13:17:41;0.22;;;0.00;;
44981;SDS011;30716;41.740;-70.400;2023-04-24T13:20:07;0.08;;;0.08;;
44981;SDS011;30716;41.740;-70.400;2023-04-24T13:22:34;0.15;;;0.00;;
44981;SDS011;30716;41.740;-70.400;2023-04-24T13:25:01;0.13;;;0.10;;
44981;SDS011;30716;41.740;-70.400;2023-04-24T13:27:27;0.15;;;0.10;;
44981;SDS011;30716;41.740;-70.400;2023-04-24T13:29:53;0.00;;;0.00;;
44981;SDS011;30716;41.740;-70.400;2023-04-24T13:32:19;0.20;;;0.10;;
44981;SDS011;30716;41.740;-70.400;2023-04-24T13:34:45;0.10;;;0.00;;
44981;SDS011;30716;41.740;-70.400;2023-04-24T13:37:11;0.22;;;0.17;;
44981;SDS011;30716;41.740;-70.400;2023-04-24T13:39:38;0.30;;;0.10;;
44981;SDS011;30716;41.740;-70.400;2023-04-24T13:42:04;0.15;;;0.00;;
44981;SDS011;30716;41.740;-70.400;2023-04-24T13:44:30;0.30;;;0.00;;
44981;SDS011;30716;41.740;-70.400;2023-04-24T13:46:57;0.10;;;0.05;;
44981;SDS011;30716;41.740;-70.400;2023-04-24T13:49:24;0.13;;;0.00;;
44981;SDS011;30716;41.740;-70.400;2023-04-24T13:51:51;0.40;;;0.10;;
44981;SDS011;30716;41.740;-70.400;2023-04-24T13:54:18;0.17;;;0.10;;
44981;SDS011;30716;41.740;-70.400;2023-04-24T13:56:45;0.17;;;0.03;;
44981;SDS011;30716;41.740;-70.400;2023-04-24T13:59:12;0.38;;;0.05;;
44981;SDS011;30716;41.740;-70.400;2023-04-24T14:01:38;0.00;;;0.00;;
44981;SDS011;30716;41.740;-70.400;2023-04-24T14:04:04;0.20;;;0.00;;
44981;SDS011;30716;41.740;-70.400;2023-04-24T14:06:30;0.45;;;0.15;;
44981;SDS011;30716;41.740;-70.400;2023-04-24T14:08:57;0.10;;;0.00;;
44981;SDS011;30716;41.740;-70.400;2023-04-24T14:11:23;0.17;;;0.00;;
44981;SDS011;30716;41.740;-70.400;2023-04-24T14:13:49;0.20;;;0.00;;
44981;SDS011;30716;41.740;-70.400;2023-04-24T14:16:16;0.30;;;0.10;;
44981;SDS011;30716;41.740;-70.400;2023-04-24T14:18:42;0.08;;;0.00;;
44981;SDS011;30716;41.740;-70.400;2023-04-24T14:21:08;0.00;;;0.00;;
44981;SDS011;30716;41.740;-70.400;2023-04-24T14:23:34;0.25;;;0.20;;
44981;SDS011;30716;41.740;-70.400;2023-04-24T14:26:00;0.38;;;0.10;;
44981;SDS011;30716;41.740;-70.400;2023-04-24T14:28:27;0.00;;;0.00;;
44981;SDS011;30716;41.740;-70.400;2023-04-24T14:30:53;0.03;;;0.03;;
44981;SDS011;30716;41.740;-70.400;2023-04-24T14:33:19;0.22;;;0.00;;
44981;SDS011;30716;41.740;-70.400;2023-04-24T14:35:46;0.00;;;0.00;;
44981;SDS011;30716;41.740;-70.400;2023-04-24T14:38:12;0.10;;;0.10;;